Time;durP1;ratioP1;P1;durP2;ratioP2;P2;SDS_P1;SDS_P2;PMS_P1;PMS_P2;Temp;Humidity;BMP_temperature;BMP_pressure;BME280_temperature;BME280_humidity;BME280_pressure;Samples;Min_cycle;Max_cycle;Signal;HPM_P1;HPM_P2
2023/03/05 00:01:28;;;;;;;338.47;87.97;;;4.80;99.90;;;4.75;85.21;100373.28;4980879;28;20247;-80
2023/03/05 00:03:56;;;;;;;357.17;97.87;;;5.00;99.90;;;4.67;85.13;100367.81;4986537;28;20224;-80
2023/03/05 00:06:26;;;;;;;344.00;94.23;;;4.90;99.90;;;4.60;85.49;100368.47;4987112;28;20232;-81
2023/03/05 00:08:57;;;;;;;339.27;90.53;;;4.60;99.90;;;4.62;85.54;100368.50;4987701;28;20244;-80
2023/03/05 00:11:28;;;;;;;354.50;96.03;;;4.70;99.90;;;4.66;85.42;100366.03;4987432;28;20754;-80
2023/03/05 00:13:57;;;;;;;343.20;91.97;;;4.80;99.90;;;4.62;85.27;100363.28;4988609;28;20244;-80
2023/03/05 00:16:27;;;;;;;332.43;89.67;;;4.70;99.90;;;4.57;85.47;100359.63;4976744;28;20235;-81
2023/03/05 00:18:56;;;;;;;335.70;90.43;;;4.60;99.90;;;4.59;85.43;100365.78;4974592;28;20243;-81
2023/03/05 00:21:52;;;;;;;342.43;92.93;;;4.60;99.90;;;4.59;85.49;100369.31;4991096;28;20228;-81
2023/03/05 00:24:19;;;;;;;335.80;90.90;;;4.80;99.90;;;4.64;85.45;100369.44;4988668;28;20243;-80
2023/03/05 00:26:46;;;;;;;346.00;95.80;;;4.70;99.90;;;4.55;85.72;100364.81;4989485;28;20638;-80
2023/03/05 00:29:27;;;;;;;354.77;96.73;;;4.60;99.90;;;4.58;85.92;100361.41;4988952;28;20736;-82
2023/03/05 00:31:57;;;;;;;338.27;88.57;;;4.60;99.90;;;4.49;86.14;100369.84;4987855;28;20708;-81
2023/03/05 00:34:26;;;;;;;347.13;94.67;;;4.50;99.90;;;4.50;86.34;100376.88;4988475;28;20240;-82
2023/03/05 00:36:53;;;;;;;353.40;96.50;;;4.50;99.90;;;4.51;86.54;100376.03;4989304;28;20264;-81
2023/03/05 00:39:21;;;;;;;342.93;93.83;;;4.50;99.90;;;4.58;86.35;100379.72;4988283;28;20298;-82
2023/03/05 00:41:49;;;;;;;346.57;95.63;;;4.80;99.90;;;4.58;86.17;100375.38;4985020;28;20314;-80
2023/03/05 00:44:16;;;;;;;359.53;101.77;;;4.60;99.90;;;4.48;86.36;100368.97;4991774;28;20236;-81
2023/03/05 00:46:43;;;;;;;350.03;97.77;;;4.50;99.90;;;4.52;86.52;100369.06;4990765;28;20613;-81
2023/03/05 00:49:10;;;;;;;353.17;97.50;;;4.50;99.90;;;4.55;86.54;100372.66;4985342;28;20244;-81
2023/03/05 00:51:38;;;;;;;350.10;94.43;;;4.50;99.90;;;4.52;86.61;100374.28;4990469;28;20755;-82
2023/03/05 00:54:05;;;;;;;354.30;97.33;;;4.50;99.90;;;4.61;86.51;100367.63;4987477;28;20232;-81
2023/03/05 00:56:32;;;;;;;353.30;95.07;;;4.60;99.90;;;4.56;86.57;100365.69;4989497;28;20244;-81
2023/03/05 00:58:59;;;;;;;347.03;96.50;;;4.60;99.90;;;4.56;86.69;100365.69;4986404;28;20232;-81
2023/03/05 01:01:27;;;;;;;348.23;98.40;;;4.60;99.90;;;4.54;86.66;100365.66;4991672;28;20283;-82
2023/03/05 01:03:56;;;;;;;343.27;92.23;;;4.60;99.90;;;4.54;86.56;100360.41;4992051;28;20742;-82
2023/03/05 01:06:23;;;;;;;341.77;90.90;;;4.70;99.90;;;4.54;86.48;100359.53;4989650;28;20243;-81
2023/03/05 01:08:50;;;;;;;341.77;90.90;;;4.60;99.90;;;4.52;86.88;100353.34;5002384;28;20257;-81
2023/03/05 01:11:17;;;;;;;351.43;96.73;;;4.60;99.90;;;4.57;86.62;100360.50;4991334;28;20228;-81
2023/03/05 01:13:44;;;;;;;348.23;93.00;;;4.60;99.90;;;4.56;86.50;100342.13;4991938;28;20232;-81
2023/03/05 01:16:11;;;;;;;359.77;99.87;;;4.60;99.90;;;4.64;86.06;100343.25;4985753;28;20728;-82
2023/03/05 01:18:39;;;;;;;341.37;91.67;;;4.60;99.90;;;4.60;86.07;100338.75;4990185;28;20236;-81
2023/03/05 01:21:07;;;;;;;356.07;99.30;;;4.60;99.90;;;4.57;85.92;100328.19;4988433;28;20338;-81
2023/03/05 01:23:36;;;;;;;344.97;96.00;;;4.60;99.90;;;4.62;85.77;100324.88;4988792;28;20236;-81
2023/03/05 01:26:04;;;;;;;349.77;95.50;;;4.60;99.90;;;4.63;85.20;100321.41;4987216;28;20256;-81
2023/03/05 01:28:32;;;;;;;344.60;92.17;;;4.60;99.90;;;4.63;85.12;100316.19;4989246;28;20232;-81
2023/03/05 01:30:59;;;;;;;337.60;89.70;;;4.80;99.90;;;4.63;84.78;100310.94;4990613;28;20225;-81
2023/03/05 01:33:26;;;;;;;344.57;91.13;;;4.70;99.90;;;4.65;84.81;100304.00;5003337;28;20316;-82
2023/03/05 01:35:53;;;;;;;341.30;93.00;;;4.70;99.90;;;4.64;84.63;100289.13;4991283;28;20272;-81
2023/03/05 01:38:20;;;;;;;345.87;93.57;;;4.70;99.90;;;4.61;85.08;100296.91;4991679;28;20247;-81
2023/03/05 01:40:47;;;;;;;339.80;93.13;;;4.80;99.90;;;4.63;85.13;100291.72;4990708;28;20260;-81
2023/03/05 01:43:27;;;;;;;350.87;95.40;;;4.60;99.90;;;4.65;85.04;100306.63;5001677;28;20228;-81
2023/03/05 01:46:12;;;;;;;339.30;91.50;;;4.70;99.90;;;4.63;85.23;100312.66;4986745;28;20228;-80
2023/03/05 01:48:43;;;;;;;336.17;87.83;;;4.70;99.90;;;4.54;85.50;100308.03;4980382;28;20232;-81
2023/03/05 01:51:11;;;;;;;337.70;90.57;;;4.70;99.90;;;4.47;85.85;100320.03;4989868;28;20240;-80
2023/03/05 01:53:38;;;;;;;340.07;93.17;;;4.50;99.90;;;4.53;85.97;100329.81;4987748;28;20232;-81
2023/03/05 01:56:06;;;;;;;346.43;95.90;;;4.60;99.90;;;4.49;86.20;100338.44;4984042;28;20252;-80
2023/03/05 01:58:33;;;;;;;350.13;94.47;;;4.50;99.90;;;4.56;85.88;100329.03;4969076;28;20286;-81
2023/03/05 02:01:01;;;;;;;352.87;96.87;;;4.60;99.90;;;4.66;85.11;100305.78;4983549;28;20236;-80
2023/03/05 02:03:28;;;;;;;346.13;93.33;;;4.60;99.90;;;4.69;84.01;100281.41;4987994;28;20236;-81
2023/03/05 02:05:55;;;;;;;339.47;91.93;;;4.90;99.90;;;4.66;83.80;100266.50;4989339;28;20241;-81
2023/03/05 02:08:23;;;;;;;341.67;93.80;;;4.70;99.90;;;4.70;83.63;100252.66;4991790;28;20243;-81
2023/03/05 02:10:55;;;;;;;342.27;90.40;;;4.70;99.90;;;4.64;83.72;100254.19;4989029;28;20236;-81
2023/03/05 02:13:34;;;;;;;346.37;90.37;;;4.70;99.90;;;4.58;83.75;100247.06;4988243;28;20663;-81
2023/03/05 02:16:01;;;;;;;351.00;92.27;;;4.60;99.90;;;4.56;83.83;100245.22;4990209;28;20233;-81
2023/03/05 02:18:29;;;;;;;336.60;88.73;;;4.60;99.90;;;4.53;84.14;100255.63;4988904;28;20291;-82
2023/03/05 02:20:56;;;;;;;345.97;95.20;;;4.60;99.90;;;4.49;84.16;100250.28;4991481;28;20267;-82
2023/03/05 02:23:27;;;;;;;353.53;95.07;;;4.50;99.90;;;4.39;84.43;100248.22;4990301;28;20384;-81
2023/03/05 02:25:55;;;;;;;335.27;87.53;;;4.50;99.90;;;4.41;83.95;100243.03;4989662;28;20755;-81
2023/03/05 02:28:30;;;;;;;356.63;98.60;;;4.40;99.90;;;4.42;83.29;100226.50;4988069;28;20268;-80
2023/03/05 02:30:57;;;;;;;350.57;97.90;;;4.50;99.90;;;4.37;83.26;100210.63;4982751;28;20271;-79
2023/03/05 02:33:24;;;;;;;346.17;92.80;;;4.40;99.90;;;4.24;83.92;100232.06;4988836;28;20612;-79
2023/03/05 02:35:51;;;;;;;346.23;91.23;;;4.30;99.90;;;4.15;84.95;100257.94;4987580;28;20247;-80
2023/03/05 02:38:20;;;;;;;354.53;95.10;;;4.20;99.90;;;4.09;85.57;100269.09;4987241;28;20323;-79
2023/03/05 02:40:47;;;;;;;345.17;94.33;;;4.20;99.90;;;4.00;86.53;100291.47;4989596;28;20611;-79
2023/03/05 02:43:14;;;;;;;346.40;96.07;;;4.00;99.90;;;3.85;87.75;100315.34;4986909;28;20267;-79
2023/03/05 02:45:41;;;;;;;353.90;92.97;;;3.90;99.90;;;3.81;88.86;100337.91;4990136;28;20250;-79
2023/03/05 02:48:08;;;;;;;342.30;92.83;;;3.90;99.90;;;3.59;90.11;100342.31;4990339;28;20320;-79
2023/03/05 02:50:38;;;;;;;345.57;93.57;;;3.80;99.90;;;3.61;90.81;100348.50;4986151;28;20330;-79
2023/03/05 02:53:05;;;;;;;339.07;88.90;;;3.60;99.90;;;3.57;91.21;100352.72;4984971;28;20228;-80
2023/03/05 02:55:33;;;;;;;448.57;134.90;;;3.80;99.90;;;3.55;92.06;100351.78;4996340;23;20264;-76
2023/03/05 02:58:00;;;;;;;340.90;90.90;;;3.60;99.90;;;3.60;92.54;100365.91;5018114;28;20238;-76
2023/03/05 03:00:27;;;;;;;358.93;96.43;;;3.70;99.90;;;3.67;92.52;100360.06;5021588;28;20261;-76
2023/03/05 03:02:54;;;;;;;339.43;88.70;;;3.80;99.90;;;3.65;92.51;100353.00;5026163;28;20239;-76
2023/03/05 03:05:22;;;;;;;363.50;95.70;;;3.80;99.90;;;3.69;92.18;100344.44;5023485;28;20237;-75
2023/03/05 03:07:49;;;;;;;345.43;91.53;;;3.70;99.90;;;3.69;92.66;100347.94;5021798;28;20328;-73
2023/03/05 03:10:17;;;;;;;349.77;95.33;;;3.80;99.90;;;3.68;92.65;100333.06;5026958;28;20300;-71
2023/03/05 03:12:47;;;;;;;341.70;90.53;;;3.70;99.90;;;3.68;92.14;100335.69;5027552;28;20241;-71
2023/03/05 03:15:16;;;;;;;352.60;92.53;;;3.70;99.90;;;3.65;92.16;100332.09;5020462;28;20239;-71
2023/03/05 03:17:43;;;;;;;362.57;96.90;;;3.60;99.90;;;3.69;92.06;100339.19;5024512;28;20251;-71
2023/03/05 03:20:15;;;;;;;363.87;98.57;;;3.70;99.90;;;3.66;91.98;100328.63;5022937;28;20260;-71
2023/03/05 03:22:44;;;;;;;342.63;90.47;;;3.70;99.90;;;3.62;92.10;100329.38;5026176;28;20280;-72
2023/03/05 03:25:17;;;;;;;343.23;88.77;;;3.60;99.90;;;3.62;91.94;100326.75;5023727;28;20325;-71
2023/03/05 03:27:44;;;;;;;339.10;85.90;;;3.60;99.90;;;3.64;92.03;100325.97;5025902;28;20250;-71
2023/03/05 03:30:12;;;;;;;345.27;90.50;;;3.80;99.90;;;3.74;91.32;100324.56;5024653;28;20234;-71
2023/03/05 03:32:40;;;;;;;356.20;96.27;;;3.70;99.90;;;3.76;91.00;100331.63;5024935;28;20242;-71
2023/03/05 03:35:08;;;;;;;344.17;89.80;;;3.80;99.90;;;3.77;90.60;100329.88;5027603;28;20278;-71
2023/03/05 03:37:35;;;;;;;352.57;91.80;;;3.80;99.90;;;3.75;90.60;100318.50;5007257;28;20325;-71
2023/03/05 03:40:04;;;;;;;343.93;88.23;;;3.80;99.90;;;3.78;90.53;100322.09;5020881;28;20322;-71
2023/03/05 03:42:32;;;;;;;348.83;92.50;;;3.80;99.90;;;3.79;90.41;100317.75;5024244;28;20265;-71
2023/03/05 03:45:01;;;;;;;342.80;87.63;;;3.80;99.90;;;3.77;90.40;100312.47;5017485;28;20230;-71
2023/03/05 03:47:29;;;;;;;348.00;86.77;;;3.80;99.90;;;3.77;90.48;100317.69;5019695;28;20618;-72
2023/03/05 03:49:57;;;;;;;352.30;88.77;;;3.90;99.90;;;3.80;90.47;100315.19;5020532;28;20320;-71
2023/03/05 03:52:25;;;;;;;354.03;91.00;;;3.80;99.90;;;3.78;90.34;100315.97;5024075;28;20317;-72
2023/03/05 03:54:54;;;;;;;345.47;87.80;;;3.80;99.90;;;3.81;90.33;100316.09;5026827;28;20234;-71
2023/03/05 03:57:21;;;;;;;362.63;95.93;;;3.80;99.90;;;3.81;90.02;100309.13;5019522;28;20326;-72
2023/03/05 03:59:49;;;;;;;352.80;91.97;;;3.90;99.90;;;3.82;89.98;100304.78;5023894;28;20235;-71
2023/03/05 04:02:17;;;;;;;367.67;99.03;;;3.90;99.90;;;3.78;89.84;100300.28;5017369;28;20242;-71
2023/03/05 04:04:44;;;;;;;367.27;99.90;;;3.80;99.90;;;3.74;90.01;100299.28;5013318;28;20668;-71
2023/03/05 04:07:11;;;;;;;362.57;93.93;;;3.80;99.90;;;3.74;90.57;100303.63;5017348;28;20288;-71
2023/03/05 04:09:38;;;;;;;358.37;95.53;;;3.70;99.90;;;3.79;90.49;100320.38;5014957;28;20251;-72
2023/03/05 04:12:06;;;;;;;359.70;95.17;;;3.80;99.90;;;3.74;90.46;100308.88;5037894;28;20341;-71
2023/03/05 04:14:33;;;;;;;346.93;90.87;;;3.80;99.90;;;3.65;90.98;100308.53;4997704;28;20312;-71
2023/03/05 04:17:01;;;;;;;362.77;97.47;;;3.70;99.90;;;3.68;91.23;100317.38;5025182;28;20235;-72
2023/03/05 04:19:29;;;;;;;349.03;90.70;;;3.60;99.90;;;3.67;91.46;100317.34;5022907;28;20312;-71
2023/03/05 04:21:58;;;;;;;365.13;100.23;;;3.70;99.90;;;3.62;92.38;100324.13;5022401;28;20246;-72
2023/03/05 04:24:25;;;;;;;359.10;95.67;;;3.60;99.90;;;3.60;92.64;100328.41;5022322;28;20305;-72
2023/03/05 04:26:52;;;;;;;347.27;93.17;;;3.60;99.90;;;3.68;92.80;100340.03;5025858;28;20320;-71
2023/03/05 04:29:19;;;;;;;350.37;91.77;;;3.70;99.90;;;3.75;92.93;100345.53;5020819;28;20263;-72
2023/03/05 04:31:46;;;;;;;348.73;92.03;;;3.80;99.90;;;3.78;93.10;100360.44;5024134;28;20239;-72
2023/03/05 04:34:14;;;;;;;354.27;91.63;;;3.80;99.90;;;3.72;93.17;100358.50;5021511;28;20234;-71
2023/03/05 04:36:41;;;;;;;355.63;92.83;;;3.70;99.90;;;3.80;93.85;100372.75;5024557;28;20239;-71
2023/03/05 04:39:08;;;;;;;337.43;85.87;;;3.80;99.90;;;3.80;93.48;100364.00;5024554;28;20277;-71
2023/03/05 04:41:35;;;;;;;348.87;89.63;;;4.00;99.90;;;3.82;93.56;100367.56;5025273;28;20266;-71
2023/03/05 04:44:02;;;;;;;359.57;94.37;;;3.90;99.90;;;3.76;93.60;100367.34;5023049;28;20259;-71
2023/03/05 04:46:29;;;;;;;346.83;88.77;;;3.80;99.90;;;3.72;93.54;100358.50;5024439;28;20263;-72
2023/03/05 04:48:57;;;;;;;336.00;86.30;;;3.80;99.90;;;3.73;93.95;100357.66;5025705;28;20365;-72
2023/03/05 04:51:25;;;;;;;369.23;100.77;;;3.80;99.90;;;3.69;93.91;100366.25;5021946;28;20293;-71
2023/03/05 04:53:52;;;;;;;348.57;92.67;;;3.80;99.90;;;3.63;94.95;100368.63;5025633;28;20253;-71
2023/03/05 04:56:19;;;;;;;342.10;89.37;;;3.70;99.90;;;3.52;95.96;100372.59;5036494;28;20242;-71
2023/03/05 04:58:46;;;;;;;350.87;91.73;;;3.60;99.90;;;3.51;95.89;100374.31;5037857;28;20285;-71
2023/03/05 05:01:14;;;;;;;368.63;98.63;;;3.40;99.90;;;3.47;96.22;100375.03;5025793;28;20235;-71
2023/03/05 05:03:41;;;;;;;344.90;88.13;;;3.50;99.90;;;3.27;97.32;100376.03;5029810;28;20249;-71
2023/03/05 05:06:08;;;;;;;352.67;92.87;;;3.40;99.90;;;3.22;97.55;100372.38;5026203;28;20300;-71
2023/03/05 05:08:35;;;;;;;334.57;84.30;;;3.40;99.90;;;3.30;97.77;100372.66;5025260;28;20308;-71
2023/03/05 05:11:05;;;;;;;350.87;90.33;;;3.40;99.90;;;3.37;97.65;100382.50;5024339;28;20322;-71
2023/03/05 05:13:33;;;;;;;339.50;87.57;;;3.40;99.90;;;3.33;97.33;100367.53;5023927;28;20228;-71
2023/03/05 05:16:01;;;;;;;336.87;86.80;;;3.30;99.90;;;3.37;97.35;100367.69;5026976;28;20238;-71
2023/03/05 05:18:28;;;;;;;334.77;83.37;;;3.40;99.90;;;3.32;97.50;100366.66;5026187;28;20235;-71
2023/03/05 05:20:55;;;;;;;369.63;97.67;;;3.50;99.90;;;3.32;97.25;100365.75;5022596;28;20288;-71
2023/03/05 05:23:22;;;;;;;352.33;92.57;;;3.30;99.90;;;3.33;97.54;100367.53;5025445;28;20235;-71
2023/03/05 05:26:01;;;;;;;362.87;93.77;;;3.30;99.90;;;3.23;97.91;100366.31;5041562;28;20341;-71
2023/03/05 05:28:28;;;;;;;343.83;84.83;;;3.30;99.90;;;3.22;98.42;100375.88;5026668;28;20238;-71
2023/03/05 05:30:56;;;;;;;342.03;84.40;;;3.20;99.90;;;3.25;98.21;100376.81;5030618;28;20259;-71
2023/03/05 05:33:23;;;;;;;367.17;96.67;;;3.40;99.90;;;3.21;98.69;100381.03;5027962;28;20587;-71
2023/03/05 05:35:50;;;;;;;340.43;85.63;;;3.30;99.90;;;3.19;98.76;100382.69;5029870;28;20239;-71
2023/03/05 05:38:18;;;;;;;366.37;95.50;;;3.30;99.90;;;3.16;98.83;100385.19;5021866;28;20297;-71
2023/03/05 05:40:45;;;;;;;348.57;87.40;;;3.20;99.90;;;3.12;99.26;100383.31;5025618;28;20258;-71
2023/03/05 05:43:13;;;;;;;363.03;92.33;;;3.10;99.90;;;3.19;99.60;100396.66;5020228;28;20312;-71
2023/03/05 05:45:40;;;;;;;359.37;90.90;;;3.20;99.90;;;3.24;99.28;100399.44;5025025;28;20262;-73
2023/03/05 05:48:07;;;;;;;350.37;88.10;;;3.40;99.90;;;3.45;99.33;100413.31;5022621;28;20322;-74
2023/03/05 05:50:34;;;;;;;360.23;92.87;;;3.60;99.90;;;3.53;99.39;100431.91;5021871;28;20277;-71
2023/03/05 05:53:01;;;;;;;363.47;91.63;;;3.50;99.90;;;3.52;99.04;100420.53;5023294;28;20246;-71
2023/03/05 05:55:28;;;;;;;358.03;90.93;;;3.50;99.90;;;3.68;98.44;100424.59;5019788;28;20239;-71
2023/03/05 05:57:55;;;;;;;352.87;89.40;;;3.80;99.90;;;3.76;98.07;100427.50;5022167;28;20250;-71
2023/03/05 06:00:22;;;;;;;369.10;97.00;;;3.80;99.90;;;3.71;97.88;100416.88;5023210;28;20235;-71
2023/03/05 06:02:49;;;;;;;345.70;87.80;;;3.80;99.90;;;3.67;97.88;100411.47;5026176;28;20243;-72
2023/03/05 06:05:17;;;;;;;359.03;91.53;;;3.70;99.90;;;3.66;97.93;100413.19;5030778;28;20235;-71
2023/03/05 06:07:44;;;;;;;361.73;92.93;;;3.70;99.90;;;3.68;98.00;100410.66;5025210;28;20234;-71
2023/03/05 06:10:11;;;;;;;362.17;92.03;;;3.70;99.90;;;3.62;97.89;100411.31;5021665;28;20254;-71
2023/03/05 06:12:38;;;;;;;363.57;94.27;;;3.70;99.90;;;3.64;97.65;100407.03;5023350;28;20239;-71
2023/03/05 06:15:06;;;;;;;359.00;90.13;;;3.70;99.90;;;3.66;97.81;100414.94;5021216;28;20229;-71
2023/03/05 06:17:34;;;;;;;351.13;90.07;;;3.70;99.90;;;3.66;97.54;100410.59;5004464;28;20255;-71
2023/03/05 06:20:01;;;;;;;358.73;91.77;;;3.70;99.90;;;3.72;97.21;100415.16;5022123;28;20242;-74
2023/03/05 06:22:28;;;;;;;362.27;92.43;;;3.70;99.90;;;3.73;97.11;100414.31;5020303;28;20407;-75
2023/03/05 06:24:55;;;;;;;358.83;90.20;;;3.80;99.90;;;3.71;96.87;100413.38;5024460;28;20328;-73
2023/03/05 06:27:22;;;;;;;355.00;90.53;;;3.80;99.90;;;3.67;97.00;100409.75;5037618;28;20264;-72
2023/03/05 06:29:53;;;;;;;348.83;90.87;;;3.70;99.90;;;3.65;96.75;100406.19;5023400;28;20306;-73
2023/03/05 06:32:20;;;;;;;345.77;90.03;;;3.70;99.90;;;3.62;96.71;100400.84;5028087;28;20246;-73
2023/03/05 06:34:48;;;;;;;344.17;87.00;;;3.90;99.90;;;3.65;96.70;100405.31;5028073;28;20243;-73
2023/03/05 06:37:15;;;;;;;351.50;88.90;;;3.60;99.90;;;3.66;96.64;100407.09;5019435;28;20321;-73
2023/03/05 06:39:43;;;;;;;338.83;94.17;;;3.70;99.90;;;3.67;96.43;100408.88;5022948;28;20269;-73
2023/03/05 06:42:10;;;;;;;349.20;92.53;;;3.70;99.90;;;3.67;96.33;100412.38;5023482;28;20274;-73
2023/03/05 06:44:40;;;;;;;354.17;90.83;;;3.80;99.90;;;3.69;96.32;100409.81;5019785;28;20255;-75
2023/03/05 06:47:09;;;;;;;369.60;96.70;;;3.70;99.90;;;3.71;96.40;100416.88;5023340;28;20710;-73
2023/03/05 06:49:38;;;;;;;368.67;102.07;;;3.90;99.90;;;3.68;96.62;100422.00;5019676;28;20243;-72
2023/03/05 06:52:08;;;;;;;354.23;91.77;;;3.70;99.90;;;3.68;97.47;100439.41;5081489;23;20233;-82
2023/03/05 06:54:36;;;;;;;346.17;87.33;;;3.70;99.90;;;3.70;97.00;100437.75;4950326;28;20241;-82
2023/03/05 06:57:03;;;;;;;362.07;97.37;;;4.00;99.90;;;3.73;97.18;100440.47;4968315;28;20240;-82
2023/03/05 06:59:30;;;;;;;349.13;89.47;;;3.80;99.90;;;3.76;97.30;100448.44;4950682;28;20248;-83
2023/03/05 07:01:57;;;;;;;343.80;86.53;;;3.80;99.90;;;3.76;97.12;100445.81;4952391;28;20296;-82
2023/03/05 07:04:24;;;;;;;348.73;91.03;;;3.80;99.90;;;3.80;96.69;100445.97;4952027;28;20238;-83
2023/03/05 07:06:52;;;;;;;349.57;88.83;;;3.80;99.90;;;3.85;96.44;100438.28;4935037;29;20242;-82
2023/03/05 07:09:19;;;;;;;358.07;96.10;;;3.90;99.90;;;3.92;96.29;100449.91;4950658;28;20242;-81
2023/03/05 07:11:46;;;;;;;340.77;88.17;;;4.10;99.90;;;3.94;95.90;100443.88;4955481;28;20249;-79
2023/03/05 07:14:13;;;;;;;341.00;85.17;;;4.00;99.90;;;3.96;95.68;100442.22;4957648;28;20672;-81
2023/03/05 07:16:40;;;;;;;345.80;89.83;;;4.00;99.90;;;4.00;95.64;100449.34;4949462;28;20237;-81
2023/03/05 07:19:09;;;;;;;338.90;87.73;;;4.00;99.90;;;4.02;95.41;100442.44;4954414;28;20478;-81
2023/03/05 07:21:37;;;;;;;350.70;90.60;;;4.10;99.90;;;4.09;94.88;100438.31;4935924;28;20644;-81
2023/03/05 07:24:07;;;;;;;338.37;84.10;;;4.10;99.90;;;4.12;94.60;100430.56;4953171;28;20233;-81
2023/03/05 07:26:34;;;;;;;343.17;87.73;;;4.20;99.90;;;4.18;94.52;100444.75;4956243;28;20294;-81
2023/03/05 07:29:02;;;;;;;346.60;90.43;;;4.20;99.90;;;4.22;93.89;100437.00;4938741;29;20300;-81
2023/03/05 07:31:30;;;;;;;343.27;88.83;;;4.20;99.90;;;4.27;93.71;100432.81;4954046;28;20271;-81
2023/03/05 07:34:00;;;;;;;341.97;93.13;;;4.30;99.90;;;4.35;93.26;100433.97;4953516;28;20233;-81
2023/03/05 07:36:29;;;;;;;359.97;96.53;;;4.30;99.90;;;4.35;92.53;100428.72;4951961;28;20238;-81
2023/03/05 07:38:56;;;;;;;343.17;91.17;;;4.40;99.90;;;4.42;92.23;100430.72;4953237;28;20337;-82
2023/03/05 07:41:23;;;;;;;346.43;90.93;;;4.40;99.90;;;4.48;91.78;100425.69;4953728;28;20237;-82
2023/03/05 07:43:53;;;;;;;341.47;91.43;;;4.50;99.90;;;4.50;91.37;100416.16;4950453;28;20245;-81
2023/03/05 07:46:27;;;;;;;340.30;94.23;;;4.60;99.90;;;4.52;90.81;100410.97;4954078;28;20309;-81
2023/03/05 07:48:55;;;;;;;340.93;92.10;;;4.50;99.90;;;4.52;90.52;100406.59;4957689;28;20249;-82
2023/03/05 07:51:24;;;;;;;342.03;91.83;;;4.50;99.90;;;4.57;90.19;100398.91;4956539;28;20233;-83
2023/03/05 07:53:54;;;;;;;346.27;93.73;;;4.60;99.90;;;4.57;89.61;100386.69;4956591;28;20237;-83
2023/03/05 07:56:34;;;;;;;348.67;93.93;;;4.60;99.90;;;4.59;88.93;100373.66;4929262;29;20679;-82
2023/03/05 07:59:05;;;;;;;341.53;91.13;;;4.60;99.90;;;4.67;88.43;100373.06;4954506;28;20245;-84
2023/03/05 08:01:34;;;;;;;351.63;95.77;;;4.70;99.90;;;4.71;88.03;100361.81;4951312;28;20761;-83
2023/03/05 08:04:03;;;;;;;339.87;90.47;;;4.70;99.90;;;4.83;87.58;100363.94;4952644;28;20264;-82
2023/03/05 08:06:31;;;;;;;352.65;96.40;;;4.80;99.90;;;4.88;87.24;100359.72;4933067;28;20344;-81
2023/03/05 08:08:59;;;;;;;348.80;94.27;;;4.90;99.90;;;4.89;86.78;100345.78;4937454;29;20245;-81
2023/03/05 08:11:27;;;;;;;345.37;95.97;;;4.90;99.90;;;4.92;86.23;100330.16;4935269;28;20297;-81
2023/03/05 08:13:56;;;;;;;343.23;94.83;;;4.90;99.90;;;4.90;85.72;100321.34;4954233;28;20237;-81
2023/03/05 08:16:25;;;;;;;350.83;99.70;;;4.90;99.90;;;4.89;85.41;100303.84;4952874;28;20703;-82
2023/03/05 08:18:56;;;;;;;341.07;97.80;;;4.80;99.90;;;4.94;85.00;100302.25;4951803;28;20234;-81
2023/03/05 08:21:36;;;;;;;349.57;98.93;;;4.90;99.90;;;5.03;85.02;100301.66;4954313;28;20313;-82
2023/03/05 08:24:06;;;;;;;346.17;98.13;;;5.00;99.90;;;5.02;84.63;100289.38;4953160;28;20225;-81
2023/03/05 08:26:37;;;;;;;345.67;98.43;;;5.00;99.90;;;5.02;84.24;100284.13;4953258;28;20241;-81
2023/03/05 08:29:08;;;;;;;341.37;99.60;;;5.00;99.90;;;5.02;83.74;100265.78;4954374;28;20238;-82
2023/03/05 08:31:36;;;;;;;346.30;103.50;;;5.00;99.90;;;5.01;83.82;100259.66;4956155;28;20233;-85
2023/03/05 08:34:04;;;;;;;360.47;104.10;;;5.10;99.90;;;5.11;83.79;100261.69;4962419;28;20272;-82
2023/03/05 08:36:31;;;;;;;349.07;107.03;;;5.10;99.90;;;5.19;84.03;100274.13;4957318;28;20245;-84
2023/03/05 08:38:59;;;;;;;344.97;105.00;;;5.20;99.90;;;5.12;83.26;100247.75;4958822;28;20817;-83
2023/03/05 08:41:26;;;;;;;350.63;103.67;;;5.20;99.90;;;5.06;83.25;100239.72;4958563;28;20245;-84
2023/03/05 08:43:53;;;;;;;344.97;102.33;;;5.10;99.90;;;5.07;82.49;100223.16;4957213;28;20297;-81
2023/03/05 08:46:20;;;;;;;343.33;101.80;;;5.10;99.90;;;5.15;82.61;100220.72;4955136;28;20297;-80
2023/03/05 08:48:48;;;;;;;344.60;103.13;;;5.20;99.90;;;5.18;82.32;100212.94;4956591;28;20265;-83
2023/03/05 08:51:19;;;;;;;345.87;105.83;;;5.30;99.90;;;5.34;82.44;100224.78;4955895;28;20316;-83
2023/03/05 08:53:46;;;;;;;351.93;108.20;;;5.30;99.90;;;5.37;81.98;100206.50;4941333;28;20248;-82
2023/03/05 08:56:14;;;;;;;340.58;105.72;;;5.40;99.90;;;5.35;81.61;100208.19;4964444;28;20265;-81
2023/03/05 08:58:42;;;;;;;338.90;101.77;;;5.40;99.90;;;5.31;81.35;100194.13;4958164;28;20808;-81
2023/03/05 09:01:09;;;;;;;350.40;106.43;;;5.40;99.90;;;5.43;81.45;100199.69;4955911;28;20300;-81
2023/03/05 09:03:37;;;;;;;341.02;102.03;;;5.40;99.90;;;5.32;80.97;100174.03;4938160;28;20242;-81
2023/03/05 09:06:08;;;;;;;364.43;114.30;;;5.40;99.90;;;5.20;80.60;100155.31;4948543;28;20282;-81
2023/03/05 09:08:35;;;;;;;355.33;110.03;;;5.30;99.90;;;5.28;79.86;100138.09;4957438;28;20229;-81
2023/03/05 09:11:06;;;;;;;349.70;107.55;;;5.30;99.90;;;5.22;79.28;100102.13;4957781;28;20250;-81
2023/03/05 09:13:33;;;;;;;350.55;111.88;;;5.30;99.90;;;5.26;79.25;100101.34;4958346;28;20241;-81
2023/03/05 09:16:05;;;;;;;350.75;108.88;;;5.30;99.90;;;5.23;78.30;100072.44;4957277;28;20268;-81
2023/03/05 09:18:35;;;;;;;358.23;108.87;;;5.30;99.90;;;5.26;77.98;100056.78;4946583;28;20238;-81
2023/03/05 09:21:08;;;;;;;347.80;106.20;;;5.30;99.90;;;5.30;77.69;100027.16;4955918;28;20274;-80
2023/03/05 09:23:35;;;;;;;356.05;109.22;;;5.30;99.90;;;5.21;76.41;99971.91;4960426;28;20257;-81
2023/03/05 09:26:06;;;;;;;349.23;109.23;;;5.30;99.90;;;5.29;75.75;99951.97;4960210;28;20238;-80
2023/03/05 09:28:33;;;;;;;351.73;112.93;;;5.30;99.90;;;5.26;75.88;99933.56;4954387;28;20301;-81
2023/03/05 09:31:03;;;;;;;347.40;107.25;;;5.40;99.90;;;5.40;75.97;99950.47;4938005;29;20245;-80
2023/03/05 09:33:31;;;;;;;355.17;110.47;;;5.40;99.90;;;5.51;75.88;99948.09;4954414;28;20246;-80
2023/03/05 09:35:59;;;;;;;350.13;112.37;;;5.50;99.90;;;5.44;75.53;99926.09;4936476;28;20730;-82
2023/03/05 09:38:28;;;;;;;356.60;113.30;;;5.50;99.90;;;5.59;75.34;99940.38;4947898;28;20237;-79
2023/03/05 09:41:18;;;;;;;348.98;108.00;;;5.60;99.90;;;5.38;74.77;99883.13;4959057;28;20262;-80
2023/03/05 09:44:15;;;;;;;352.88;116.30;;;5.50;99.90;;;5.42;74.44;99877.97;4933176;29;20284;-79
2023/03/05 09:46:50;;;;;;;348.83;105.60;;;5.50;99.90;;;5.44;74.37;99863.16;4917659;28;20279;-79
2023/03/05 09:49:36;;;;;;;371.75;115.65;;;5.50;99.90;;;5.37;74.32;99847.28;4956781;28;20241;-79
2023/03/05 09:52:22;;;;;;;353.08;110.30;;;5.40;99.90;;;5.37;73.62;99815.81;4934478;29;20329;-82
2023/03/05 09:54:56;;;;;;;355.40;110.68;;;5.50;99.90;;;5.22;73.63;99773.56;4940518;28;20328;-81
2023/03/05 09:57:39;;;;;;;366.95;118.65;;;5.30;99.90;;;5.19;73.16;99756.00;4938836;28;20321;-81
2023/03/05 10:00:49;;;;;;;358.65;113.10;;;5.30;99.90;;;5.22;73.28;99755.22;4930945;29;20238;-83
2023/03/05 10:03:56;;;;;;;343.87;103.93;;;5.30;99.90;;;5.35;73.49;99786.06;4929515;29;20233;-81
2023/03/05 10:06:49;;;;;;;349.10;109.57;;;5.40;99.90;;;5.40;73.21;99764.31;4909237;28;20233;-81
2023/03/05 10:09:56;;;;;;;351.83;110.93;;;5.40;99.90;;;5.45;73.28;99775.78;4945570;28;20240;-82
2023/03/05 10:12:41;;;;;;;346.08;105.82;;;5.50;99.90;;;5.43;72.75;99747.75;4938058;28;20240;-83
2023/03/05 10:15:20;;;;;;;351.77;108.53;;;5.40;99.90;;;5.29;72.31;99699.44;4935075;29;20268;-83